This is the latest recevied weather packets stored in our database for station/object HS5GDX-4. If no packets are shown the sender has not sent any weather packets the latest 1 day(s).
| Time | Temp. | Humidity | Pressure | Rain* | Wind** | Luminosity | Snow |
|---|---|---|---|---|---|---|---|
| 1778048892 | 38.33° C | 33% | 965 hPa | - | 0 m/s | 0 W/m² | - |
| 1778047963 | 38.89° C | 32% | 965 hPa | - | 0 m/s | 0 W/m² | - |
| 1778047040 | 38.89° C | 34% | 966 hPa | - | 0 m/s | 0 W/m² | - |
| 1778047035 | 38.89° C | 34% | 966 hPa | - | 0 m/s | 0 W/m² | - |
| 1778046107 | 38.33° C | 34% | 966 hPa | - | 0 m/s | 0 W/m² | - |
| 1778045179 | 37.22° C | 37% | 966 hPa | - | 0 m/s | 0 W/m² | - |
| 1778044251 | 37.78° C | 35% | 966 hPa | - | 0 m/s | 0 W/m² | - |
| 1778043321 | 37.22° C | 37% | 967 hPa | - | 0 m/s | 0 W/m² | - |
| 1778042393 | 37.22° C | - | - | - | 0 m/s | - | - |
| 1778042392 | 37.22° C | 37% | 967 hPa | - | 0 m/s | 0 W/m² | - |
| 1778041463 | 37.22° C | 37% | 967 hPa | - | 0 m/s | 0 W/m² | - |
| 1778040534 | 36.11° C | 39% | 967 hPa | - | 0 m/s | 0 W/m² | - |
| 1778039605 | 35° C | 42% | 967 hPa | - | 0 m/s | 0 W/m² | - |
| 1778038677 | 36.11° C | 40% | 968 hPa | - | 0 m/s | 0 W/m² | - |
| 1778037748 | 35.56° C | 40% | 968 hPa | - | 0 m/s | 0 W/m² | - |
| 1778036818 | 35.56° C | 41% | 968 hPa | - | 0 m/s | 0 W/m² | - |
| 1778035889 | 34.44° C | 42% | 968 hPa | - | 0 m/s | 0 W/m² | - |
| 1778034961 | 34.44° C | 42% | 968 hPa | - | 0 m/s | 0 W/m² | - |
| 1778034033 | 33.89° C | 43% | 968 hPa | - | 0 m/s | 0 W/m² | - |
| 1778033104 | 33.89° C | 44% | 968 hPa | - | 0 m/s | 0 W/m² | - |
| 1778032176 | 33.33° C | 45% | 968 hPa | - | 0 m/s | 0 W/m² | - |
| 1778031256 | 33.89° C | 45% | 968 hPa | - | 0 m/s | 0 W/m² | - |
| 1778031245 | 33.89° C | 45% | 968 hPa | - | 0 m/s | 0 W/m² | - |
| 1778030317 | 34.44° C | 44% | 968 hPa | - | 0 m/s | 0 W/m² | - |
| 1778029391 | 33.89° C | 44% | 968 hPa | - | 0 m/s | - | - |
* Rain since midnight (hover to see other rain measurements)
** Current wind speed in m/s (hover to see current wind gust speed)